sensor_id;sensor_type;location;lat;lon;timestamp;temperature;humidity
38860;DHT22;24609;48.316;16.174;2023-06-10T00:01:52;15.20;99.90
38860;DHT22;24609;48.316;16.174;2023-06-10T00:04:18;15.10;99.90
38860;DHT22;24609;48.316;16.174;2023-06-10T00:06:44;15.10;99.90
38860;DHT22;24609;48.316;16.174;2023-06-10T00:09:10;15.00;99.90
38860;DHT22;24609;48.316;16.174;2023-06-10T00:11:36;15.00;99.90
38860;DHT22;24609;48.316;16.174;2023-06-10T00:14:02;15.00;99.90
38860;DHT22;24609;48.316;16.174;2023-06-10T00:16:28;14.90;99.90
38860;DHT22;24609;48.316;16.174;2023-06-10T00:18:54;14.90;99.90
38860;DHT22;24609;48.316;16.174;2023-06-10T00:21:28;14.80;99.90
38860;DHT22;24609;48.316;16.174;2023-06-10T00:23:54;14.80;99.90
38860;DHT22;24609;48.316;16.174;2023-06-10T00:26:21;14.80;99.90
38860;DHT22;24609;48.316;16.174;2023-06-10T00:28:48;15.00;99.90
38860;DHT22;24609;48.316;16.174;2023-06-10T00:31:13;15.20;99.90
38860;DHT22;24609;48.316;16.174;2023-06-10T00:33:39;15.40;99.90
38860;DHT22;24609;48.316;16.174;2023-06-10T00:36:05;15.50;99.90
38860;DHT22;24609;48.316;16.174;2023-06-10T00:38:31;15.40;99.90
38860;DHT22;24609;48.316;16.174;2023-06-10T00:40:57;15.60;99.90
38860;DHT22;24609;48.316;16.174;2023-06-10T00:43:23;15.60;99.90
38860;DHT22;24609;48.316;16.174;2023-06-10T00:45:49;15.60;99.90
38860;DHT22;24609;48.316;16.174;2023-06-10T00:48:16;15.70;99.90
38860;DHT22;24609;48.316;16.174;2023-06-10T00:50:41;15.90;99.90
38860;DHT22;24609;48.316;16.174;2023-06-10T00:53:08;16.00;99.90
38860;DHT22;24609;48.316;16.174;2023-06-10T00:55:34;16.00;99.90
38860;DHT22;24609;48.316;16.174;2023-06-10T00:58:00;16.00;99.90
38860;DHT22;24609;48.316;16.174;2023-06-10T01:00:27;16.10;99.90
38860;DHT22;24609;48.316;16.174;2023-06-10T01:02:53;16.20;99.90
38860;DHT22;24609;48.316;16.174;2023-06-10T01:05:19;16.20;99.90
38860;DHT22;24609;48.316;16.174;2023-06-10T01:08:01;16.20;99.90
38860;DHT22;24609;48.316;16.174;2023-06-10T01:11:01;16.30;99.90
38860;DHT22;24609;48.316;16.174;2023-06-10T01:13:30;16.30;99.90
38860;DHT22;24609;48.316;16.174;2023-06-10T01:15:58;16.20;99.90
38860;DHT22;24609;48.316;16.174;2023-06-10T01:18:30;16.10;99.90
38860;DHT22;24609;48.316;16.174;2023-06-10T01:20:56;16.20;99.90
38860;DHT22;24609;48.316;16.174;2023-06-10T01:23:23;16.20;99.90
38860;DHT22;24609;48.316;16.174;2023-06-10T01:26:04;16.20;99.90
38860;DHT22;24609;48.316;16.174;2023-06-10T01:28:40;16.20;99.90
38860;DHT22;24609;48.316;16.174;2023-06-10T01:34:13;16.30;99.90
38860;DHT22;24609;48.316;16.174;2023-06-10T01:36:41;16.30;99.90
38860;DHT22;24609;48.316;16.174;2023-06-10T01:39:08;16.30;99.90
38860;DHT22;24609;48.316;16.174;2023-06-10T01:41:36;16.30;99.90
38860;DHT22;24609;48.316;16.174;2023-06-10T01:44:02;16.30;99.90
38860;DHT22;24609;48.316;16.174;2023-06-10T01:46:28;16.30;99.90
38860;DHT22;24609;48.316;16.174;2023-06-10T01:48:54;16.30;99.90
38860;DHT22;24609;48.316;16.174;2023-06-10T01:51:19;16.20;99.90
38860;DHT22;24609;48.316;16.174;2023-06-10T01:53:45;16.30;99.90
38860;DHT22;24609;48.316;16.174;2023-06-10T01:56:11;16.20;99.90
38860;DHT22;24609;48.316;16.174;2023-06-10T01:58:42;16.30;99.90
38860;DHT22;24609;48.316;16.174;2023-06-10T02:01:07;16.30;99.90
38860;DHT22;24609;48.316;16.174;2023-06-10T02:03:33;16.30;99.90
38860;DHT22;24609;48.316;16.174;2023-06-10T02:05:59;16.30;99.90
38860;DHT22;24609;48.316;16.174;2023-06-10T02:08:24;16.30;99.90
38860;DHT22;24609;48.316;16.174;2023-06-10T02:10:50;16.30;99.90
38860;DHT22;24609;48.316;16.174;2023-06-10T02:13:16;16.30;99.90
38860;DHT22;24609;48.316;16.174;2023-06-10T02:15:41;16.30;99.90
38860;DHT22;24609;48.316;16.174;2023-06-10T02:18:07;16.40;99.90
38860;DHT22;24609;48.316;16.174;2023-06-10T02:20:33;16.40;99.90
38860;DHT22;24609;48.316;16.174;2023-06-10T02:22:59;16.40;99.90
38860;DHT22;24609;48.316;16.174;2023-06-10T02:25:25;16.40;99.90
38860;DHT22;24609;48.316;16.174;2023-06-10T02:27:50;16.40;99.90
38860;DHT22;24609;48.316;16.174;2023-06-10T02:30:16;16.40;99.90
38860;DHT22;24609;48.316;16.174;2023-06-10T02:32:42;16.30;99.90
38860;DHT22;24609;48.316;16.174;2023-06-10T02:35:07;16.20;99.90
38860;DHT22;24609;48.316;16.174;2023-06-10T02:37:33;16.20;99.90
38860;DHT22;24609;48.316;16.174;2023-06-10T02:39:59;16.20;99.90
38860;DHT22;24609;48.316;16.174;2023-06-10T02:42:24;16.20;99.90
38860;DHT22;24609;48.316;16.174;2023-06-10T02:44:50;16.30;99.90
38860;DHT22;24609;48.316;16.174;2023-06-10T02:47:16;16.20;99.90
38860;DHT22;24609;48.316;16.174;2023-06-10T02:49:42;16.30;99.90
38860;DHT22;24609;48.316;16.174;2023-06-10T02:52:07;16.30;99.90
38860;DHT22;24609;48.316;16.174;2023-06-10T02:54:33;16.40;99.90
38860;DHT22;24609;48.316;16.174;2023-06-10T02:56:59;16.40;99.90
38860;DHT22;24609;48.316;16.174;2023-06-10T02:59:24;16.30;99.90
38860;DHT22;24609;48.316;16.174;2023-06-10T03:01:52;16.40;99.90
38860;DHT22;24609;48.316;16.174;2023-06-10T03:04:18;16.40;99.90
38860;DHT22;24609;48.316;16.174;2023-06-10T03:06:43;16.50;99.90
38860;DHT22;24609;48.316;16.174;2023-06-10T03:09:11;16.50;99.90
38860;DHT22;24609;48.316;16.174;2023-06-10T03:11:36;16.60;99.90
38860;DHT22;24609;48.316;16.174;2023-06-10T03:14:02;16.60;99.90
38860;DHT22;24609;48.316;16.174;2023-06-10T03:16:28;16.60;99.90
38860;DHT22;24609;48.316;16.174;2023-06-10T03:18:55;16.60;99.90
38860;DHT22;24609;48.316;16.174;2023-06-10T03:21:21;16.60;99.90
38860;DHT22;24609;48.316;16.174;2023-06-10T03:23:47;16.60;99.90
38860;DHT22;24609;48.316;16.174;2023-06-10T03:26:12;16.60;99.90
38860;DHT22;24609;48.316;16.174;2023-06-10T03:28:39;16.70;99.90
38860;DHT22;24609;48.316;16.174;2023-06-10T03:31:06;16.80;99.90
38860;DHT22;24609;48.316;16.174;2023-06-10T03:33:31;16.80;99.90
38860;DHT22;24609;48.316;16.174;2023-06-10T03:36:00;16.80;99.90
38860;DHT22;24609;48.316;16.174;2023-06-10T03:38:29;16.70;99.90
38860;DHT22;24609;48.316;16.174;2023-06-10T03:40:54;16.60;99.90
38860;DHT22;24609;48.316;16.174;2023-06-10T03:43:20;16.70;99.90
38860;DHT22;24609;48.316;16.174;2023-06-10T03:45:47;16.70;99.90
38860;DHT22;24609;48.316;16.174;2023-06-10T03:48:13;16.80;99.90
38860;DHT22;24609;48.316;16.174;2023-06-10T03:50:39;16.80;99.90
38860;DHT22;24609;48.316;16.174;2023-06-10T03:53:04;16.70;99.90
38860;DHT22;24609;48.316;16.174;2023-06-10T03:55:30;16.80;99.90
38860;DHT22;24609;48.316;16.174;2023-06-10T03:57:56;16.80;99.90
38860;DHT22;24609;48.316;16.174;2023-06-10T04:00:22;16.70;99.90
38860;DHT22;24609;48.316;16.174;2023-06-10T04:02:48;16.80;99.90
38860;DHT22;24609;48.316;16.174;2023-06-10T04:05:19;16.90;99.90
38860;DHT22;24609;48.316;16.174;2023-06-10T04:07:47;16.90;99.90
38860;DHT22;24609;48.316;16.174;2023-06-10T04:10:14;16.90;99.90
38860;DHT22;24609;48.316;16.174;2023-06-10T04:12:40;17.00;99.90
38860;DHT22;24609;48.316;16.174;2023-06-10T04:15:06;17.00;99.90
38860;DHT22;24609;48.316;16.174;2023-06-10T04:17:32;17.00;99.90
38860;DHT22;24609;48.316;16.174;2023-06-10T04:19:58;17.00;99.90
38860;DHT22;24609;48.316;16.174;2023-06-10T04:22:24;16.90;99.90
38860;DHT22;24609;48.316;16.174;2023-06-10T04:24:50;16.80;99.90
38860;DHT22;24609;48.316;16.174;2023-06-10T04:27:15;16.80;99.90
38860;DHT22;24609;48.316;16.174;2023-06-10T04:29:41;16.80;99.90
38860;DHT22;24609;48.316;16.174;2023-06-10T04:32:07;16.90;99.90
38860;DHT22;24609;48.316;16.174;2023-06-10T04:34:33;16.90;99.90
38860;DHT22;24609;48.316;16.174;2023-06-10T04:36:59;16.80;99.90
38860;DHT22;24609;48.316;16.174;2023-06-10T04:39:25;16.90;99.90
38860;DHT22;24609;48.316;16.174;2023-06-10T04:41:51;16.90;99.90
38860;DHT22;24609;48.316;16.174;2023-06-10T04:44:17;16.90;99.90
38860;DHT22;24609;48.316;16.174;2023-06-10T04:46:42;17.00;99.90
38860;DHT22;24609;48.316;16.174;2023-06-10T04:49:08;17.00;99.90
38860;DHT22;24609;48.316;16.174;2023-06-10T04:51:34;16.90;99.90
38860;DHT22;24609;48.316;16.174;2023-06-10T04:53:59;16.90;99.90
38860;DHT22;24609;48.316;16.174;2023-06-10T04:56:29;17.00;99.90
38860;DHT22;24609;48.316;16.174;2023-06-10T04:58:56;17.20;99.90
38860;DHT22;24609;48.316;16.174;2023-06-10T05:01:23;17.30;99.90
38860;DHT22;24609;48.316;16.174;2023-06-10T05:03:48;17.40;99.90
38860;DHT22;24609;48.316;16.174;2023-06-10T05:06:14;17.50;99.90
38860;DHT22;24609;48.316;16.174;2023-06-10T05:08:40;17.50;99.90
38860;DHT22;24609;48.316;16.174;2023-06-10T05:11:05;17.40;99.90
38860;DHT22;24609;48.316;16.174;2023-06-10T05:13:32;17.50;99.90
38860;DHT22;24609;48.316;16.174;2023-06-10T05:15:58;17.60;99.90
38860;DHT22;24609;48.316;16.174;2023-06-10T05:18:24;17.50;99.90
38860;DHT22;24609;48.316;16.174;2023-06-10T05:20:50;17.50;99.90
38860;DHT22;24609;48.316;16.174;2023-06-10T05:23:15;17.50;99.90
38860;DHT22;24609;48.316;16.174;2023-06-10T05:25:41;17.50;99.90
38860;DHT22;24609;48.316;16.174;2023-06-10T05:28:08;17.50;99.90
38860;DHT22;24609;48.316;16.174;2023-06-10T05:30:37;17.40;99.90
38860;DHT22;24609;48.316;16.174;2023-06-10T05:33:03;17.40;99.90
38860;DHT22;24609;48.316;16.174;2023-06-10T05:35:29;17.50;99.90
38860;DHT22;24609;48.316;16.174;2023-06-10T05:37:55;17.60;99.90
38860;DHT22;24609;48.316;16.174;2023-06-10T05:40:20;17.70;99.90
38860;DHT22;24609;48.316;16.174;2023-06-10T05:42:46;17.90;99.90
38860;DHT22;24609;48.316;16.174;2023-06-10T05:45:12;18.00;99.90
38860;DHT22;24609;48.316;16.174;2023-06-10T05:47:38;18.00;99.90
38860;DHT22;24609;48.316;16.174;2023-06-10T05:50:04;18.00;99.90
38860;DHT22;24609;48.316;16.174;2023-06-10T05:52:33;18.10;99.90
38860;DHT22;24609;48.316;16.174;2023-06-10T05:54:59;18.10;99.90
38860;DHT22;24609;48.316;16.174;2023-06-10T05:57:25;18.30;99.90
38860;DHT22;24609;48.316;16.174;2023-06-10T05:59:51;18.40;99.90
38860;DHT22;24609;48.316;16.174;2023-06-10T06:02:17;18.40;99.90
38860;DHT22;24609;48.316;16.174;2023-06-10T06:04:43;18.60;99.90
38860;DHT22;24609;48.316;16.174;2023-06-10T06:07:09;18.80;99.90
38860;DHT22;24609;48.316;16.174;2023-06-10T06:09:34;19.00;99.90
38860;DHT22;24609;48.316;16.174;2023-06-10T06:12:00;19.00;99.90
38860;DHT22;24609;48.316;16.174;2023-06-10T06:14:26;19.20;99.90
38860;DHT22;24609;48.316;16.174;2023-06-10T06:16:51;19.30;99.90
38860;DHT22;24609;48.316;16.174;2023-06-10T06:19:17;19.50;99.90
38860;DHT22;24609;48.316;16.174;2023-06-10T06:21:42;19.70;99.90
38860;DHT22;24609;48.316;16.174;2023-06-10T06:24:08;19.90;99.90
38860;DHT22;24609;48.316;16.174;2023-06-10T06:26:34;19.90;99.90
38860;DHT22;24609;48.316;16.174;2023-06-10T06:28:59;19.70;99.90
38860;DHT22;24609;48.316;16.174;2023-06-10T06:31:25;19.70;99.90
38860;DHT22;24609;48.316;16.174;2023-06-10T06:33:51;19.70;99.90
38860;DHT22;24609;48.316;16.174;2023-06-10T06:36:16;19.70;99.90
38860;DHT22;24609;48.316;16.174;2023-06-10T06:38:42;20.00;99.90
38860;DHT22;24609;48.316;16.174;2023-06-10T06:41:07;20.20;99.90
38860;DHT22;24609;48.316;16.174;2023-06-10T06:43:34;20.30;99.90
38860;DHT22;24609;48.316;16.174;2023-06-10T06:45:59;20.40;99.90
38860;DHT22;24609;48.316;16.174;2023-06-10T06:48:25;20.90;99.90
38860;DHT22;24609;48.316;16.174;2023-06-10T06:50:51;21.10;99.90
38860;DHT22;24609;48.316;16.174;2023-06-10T06:53:16;20.90;99.90
38860;DHT22;24609;48.316;16.174;2023-06-10T06:55:42;20.70;99.90
38860;DHT22;24609;48.316;16.174;2023-06-10T06:58:07;20.70;99.90
38860;DHT22;24609;48.316;16.174;2023-06-10T07:00:33;20.50;99.90
38860;DHT22;24609;48.316;16.174;2023-06-10T07:02:59;20.50;99.90
38860;DHT22;24609;48.316;16.174;2023-06-10T07:05:25;20.40;99.90
38860;DHT22;24609;48.316;16.174;2023-06-10T07:07:53;20.90;99.90
38860;DHT22;24609;48.316;16.174;2023-06-10T07:10:24;21.20;99.90
38860;DHT22;24609;48.316;16.174;2023-06-10T07:12:52;21.60;99.90
38860;DHT22;24609;48.316;16.174;2023-06-10T07:15:22;21.70;99.90
38860;DHT22;24609;48.316;16.174;2023-06-10T07:17:47;21.80;99.90
38860;DHT22;24609;48.316;16.174;2023-06-10T07:20:13;21.90;99.90
38860;DHT22;24609;48.316;16.174;2023-06-10T07:22:41;21.90;99.90
38860;DHT22;24609;48.316;16.174;2023-06-10T07:25:07;21.80;99.90
38860;DHT22;24609;48.316;16.174;2023-06-10T07:27:33;21.60;99.90
38860;DHT22;24609;48.316;16.174;2023-06-10T07:29:58;21.30;99.90
38860;DHT22;24609;48.316;16.174;2023-06-10T07:32:26;21.40;99.90
38860;DHT22;24609;48.316;16.174;2023-06-10T07:34:51;21.20;99.90
38860;DHT22;24609;48.316;16.174;2023-06-10T07:37:18;21.30;99.90
38860;DHT22;24609;48.316;16.174;2023-06-10T07:39:45;21.40;99.90
38860;DHT22;24609;48.316;16.174;2023-06-10T07:42:10;21.30;99.90
38860;DHT22;24609;48.316;16.174;2023-06-10T07:44:36;21.30;99.90
38860;DHT22;24609;48.316;16.174;2023-06-10T07:47:02;21.20;99.90
38860;DHT22;24609;48.316;16.174;2023-06-10T07:49:28;21.30;99.90
38860;DHT22;24609;48.316;16.174;2023-06-10T07:51:57;21.70;99.90
38860;DHT22;24609;48.316;16.174;2023-06-10T07:54:23;22.10;99.90
38860;DHT22;24609;48.316;16.174;2023-06-10T07:56:48;22.10;99.90
38860;DHT22;24609;48.316;16.174;2023-06-10T07:59:14;22.10;99.90
38860;DHT22;24609;48.316;16.174;2023-06-10T08:01:40;21.80;99.90
38860;DHT22;24609;48.316;16.174;2023-06-10T08:04:06;21.50;99.90
38860;DHT22;24609;48.316;16.174;2023-06-10T08:06:32;21.10;99.90
38860;DHT22;24609;48.316;16.174;2023-06-10T08:08:57;20.70;99.90
38860;DHT22;24609;48.316;16.174;2023-06-10T08:11:23;20.40;99.90
38860;DHT22;24609;48.316;16.174;2023-06-10T08:13:49;20.30;99.90
38860;DHT22;24609;48.316;16.174;2023-06-10T08:16:16;20.40;99.90
38860;DHT22;24609;48.316;16.174;2023-06-10T08:18:42;20.90;99.90
38860;DHT22;24609;48.316;16.174;2023-06-10T08:21:07;21.30;99.90
38860;DHT22;24609;48.316;16.174;2023-06-10T08:23:33;21.50;99.90
38860;DHT22;24609;48.316;16.174;2023-06-10T08:26:00;21.90;99.90
38860;DHT22;24609;48.316;16.174;2023-06-10T08:28:25;22.00;99.90
38860;DHT22;24609;48.316;16.174;2023-06-10T08:30:51;22.00;99.90
38860;DHT22;24609;48.316;16.174;2023-06-10T08:33:17;22.10;99.90
38860;DHT22;24609;48.316;16.174;2023-06-10T08:35:42;21.70;99.90
38860;DHT22;24609;48.316;16.174;2023-06-10T08:38:08;21.20;99.90
38860;DHT22;24609;48.316;16.174;2023-06-10T08:40:34;21.00;99.90
38860;DHT22;24609;48.316;16.174;2023-06-10T08:45:30;20.70;99.90
38860;DHT22;24609;48.316;16.174;2023-06-10T08:48:05;20.90;99.90
38860;DHT22;24609;48.316;16.174;2023-06-10T08:50:35;21.10;99.90
38860;DHT22;24609;48.316;16.174;2023-06-10T08:53:06;21.30;99.90
38860;DHT22;24609;48.316;16.174;2023-06-10T08:55:33;21.50;99.90
38860;DHT22;24609;48.316;16.174;2023-06-10T08:58:01;21.60;99.90
38860;DHT22;24609;48.316;16.174;2023-06-10T09:00:27;22.10;99.90
38860;DHT22;24609;48.316;16.174;2023-06-10T09:02:54;22.40;99.90
38860;DHT22;24609;48.316;16.174;2023-06-10T09:05:20;22.60;99.90
38860;DHT22;24609;48.316;16.174;2023-06-10T09:07:48;22.70;99.90
38860;DHT22;24609;48.316;16.174;2023-06-10T09:10:14;22.60;99.90
38860;DHT22;24609;48.316;16.174;2023-06-10T09:12:40;22.60;99.90
38860;DHT22;24609;48.316;16.174;2023-06-10T09:15:06;22.30;99.90
38860;DHT22;24609;48.316;16.174;2023-06-10T09:17:32;22.00;99.90
38860;DHT22;24609;48.316;16.174;2023-06-10T09:19:59;22.00;99.90
38860;DHT22;24609;48.316;16.174;2023-06-10T09:22:25;21.70;99.90
38860;DHT22;24609;48.316;16.174;2023-06-10T09:27:51;21.50;99.90
38860;DHT22;24609;48.316;16.174;2023-06-10T09:30:34;21.80;99.90
38860;DHT22;24609;48.316;16.174;2023-06-10T09:33:03;22.20;99.90
38860;DHT22;24609;48.316;16.174;2023-06-10T09:35:34;22.60;99.90
38860;DHT22;24609;48.316;16.174;2023-06-10T09:38:00;23.00;99.90
38860;DHT22;24609;48.316;16.174;2023-06-10T09:40:27;22.70;99.90
38860;DHT22;24609;48.316;16.174;2023-06-10T09:42:55;22.80;99.90
38860;DHT22;24609;48.316;16.174;2023-06-10T09:45:22;23.80;99.90
38860;DHT22;24609;48.316;16.174;2023-06-10T09:47:51;25.00;99.90
38860;DHT22;24609;48.316;16.174;2023-06-10T09:50:17;27.40;99.90
38860;DHT22;24609;48.316;16.174;2023-06-10T09:52:45;29.70;99.90
38860;DHT22;24609;48.316;16.174;2023-06-10T09:55:11;31.00;96.20
38860;DHT22;24609;48.316;16.174;2023-06-10T09:57:37;28.10;99.90
38860;DHT22;24609;48.316;16.174;2023-06-10T10:00:11;26.40;99.90
38860;DHT22;24609;48.316;16.174;2023-06-10T10:02:45;24.80;99.90
38860;DHT22;24609;48.316;16.174;2023-06-10T10:05:16;24.20;99.90
38860;DHT22;24609;48.316;16.174;2023-06-10T10:07:43;24.00;99.90
38860;DHT22;24609;48.316;16.174;2023-06-10T10:10:09;24.20;99.90
38860;DHT22;24609;48.316;16.174;2023-06-10T10:12:37;24.40;99.90
38860;DHT22;24609;48.316;16.174;2023-06-10T10:15:05;24.10;99.90
38860;DHT22;24609;48.316;16.174;2023-06-10T10:17:34;23.70;99.90
38860;DHT22;24609;48.316;16.174;2023-06-10T10:20:03;24.00;99.90
38860;DHT22;24609;48.316;16.174;2023-06-10T10:22:38;24.10;99.90
38860;DHT22;24609;48.316;16.174;2023-06-10T10:25:24;24.30;99.90
38860;DHT22;24609;48.316;16.174;2023-06-10T10:28:03;24.60;99.90
38860;DHT22;24609;48.316;16.174;2023-06-10T10:30:35;23.70;99.90
38860;DHT22;24609;48.316;16.174;2023-06-10T10:36:07;23.30;99.90
38860;DHT22;24609;48.316;16.174;2023-06-10T10:38:33;23.50;99.90
38860;DHT22;24609;48.316;16.174;2023-06-10T10:41:00;24.60;99.90
38860;DHT22;24609;48.316;16.174;2023-06-10T10:43:28;25.40;99.90
38860;DHT22;24609;48.316;16.174;2023-06-10T10:46:01;26.00;99.90
38860;DHT22;24609;48.316;16.174;2023-06-10T10:48:37;27.10;99.90
38860;DHT22;24609;48.316;16.174;2023-06-10T10:51:03;27.10;99.90
38860;DHT22;24609;48.316;16.174;2023-06-10T10:53:30;28.20;99.90
38860;DHT22;24609;48.316;16.174;2023-06-10T10:56:05;30.10;99.90
38860;DHT22;24609;48.316;16.174;2023-06-10T10:58:32;30.10;99.90
38860;DHT22;24609;48.316;16.174;2023-06-10T11:00:58;28.50;99.90
38860;DHT22;24609;48.316;16.174;2023-06-10T11:03:29;27.40;99.90
38860;DHT22;24609;48.316;16.174;2023-06-10T11:05:57;25.80;99.90
38860;DHT22;24609;48.316;16.174;2023-06-10T11:10:58;25.20;99.90
38860;DHT22;24609;48.316;16.174;2023-06-10T11:13:25;25.30;99.90
38860;DHT22;24609;48.316;16.174;2023-06-10T11:15:52;25.30;99.90
38860;DHT22;24609;48.316;16.174;2023-06-10T11:18:29;25.40;99.90
38860;DHT22;24609;48.316;16.174;2023-06-10T11:31:28;25.80;99.90
38860;DHT22;24609;48.316;16.174;2023-06-10T11:33:57;25.40;99.90
38860;DHT22;24609;48.316;16.174;2023-06-10T11:36:24;25.00;99.90
38860;DHT22;24609;48.316;16.174;2023-06-10T11:38:55;25.40;99.90
38860;DHT22;24609;48.316;16.174;2023-06-10T11:41:21;25.70;99.90
38860;DHT22;24609;48.316;16.174;2023-06-10T11:43:47;26.70;99.90
38860;DHT22;24609;48.316;16.174;2023-06-10T11:46:14;29.30;99.90
38860;DHT22;24609;48.316;16.174;2023-06-10T11:48:57;29.90;99.90
38860;DHT22;24609;48.316;16.174;2023-06-10T11:51:26;33.20;95.00
38860;DHT22;24609;48.316;16.174;2023-06-10T11:53:53;33.00;92.50
38860;DHT22;24609;48.316;16.174;2023-06-10T11:56:23;31.00;92.60
38860;DHT22;24609;48.316;16.174;2023-06-10T11:59:15;28.30;98.60
38860;DHT22;24609;48.316;16.174;2023-06-10T12:01:44;27.50;99.90
38860;DHT22;24609;48.316;16.174;2023-06-10T12:04:12;26.90;99.90
38860;DHT22;24609;48.316;16.174;2023-06-10T12:06:42;26.30;99.90
38860;DHT22;24609;48.316;16.174;2023-06-10T12:09:27;25.90;99.90
38860;DHT22;24609;48.316;16.174;2023-06-10T12:14:52;27.30;99.90
38860;DHT22;24609;48.316;16.174;2023-06-10T12:17:21;31.00;99.90
38860;DHT22;24609;48.316;16.174;2023-06-10T12:19:47;33.80;96.90
38860;DHT22;24609;48.316;16.174;2023-06-10T12:22:13;36.10;92.60
38860;DHT22;24609;48.316;16.174;2023-06-10T12:24:56;36.80;85.90
38860;DHT22;24609;48.316;16.174;2023-06-10T12:27:22;34.80;81.30
38860;DHT22;24609;48.316;16.174;2023-06-10T12:29:51;35.80;70.00
38860;DHT22;24609;48.316;16.174;2023-06-10T12:32:19;38.20;69.00
38860;DHT22;24609;48.316;16.174;2023-06-10T12:34:48;40.90;57.20
38860;DHT22;24609;48.316;16.174;2023-06-10T12:37:14;42.40;51.90
38860;DHT22;24609;48.316;16.174;2023-06-10T12:39:41;39.20;52.10
38860;DHT22;24609;48.316;16.174;2023-06-10T12:42:08;33.70;58.50
38860;DHT22;24609;48.316;16.174;2023-06-10T12:44:39;31.20;70.90
38860;DHT22;24609;48.316;16.174;2023-06-10T12:47:09;28.80;85.50
38860;DHT22;24609;48.316;16.174;2023-06-10T12:49:36;28.10;92.20
38860;DHT22;24609;48.316;16.174;2023-06-10T12:52:03;27.20;98.10
38860;DHT22;24609;48.316;16.174;2023-06-10T12:54:29;27.60;98.40
38860;DHT22;24609;48.316;16.174;2023-06-10T12:56:54;28.10;99.00
38860;DHT22;24609;48.316;16.174;2023-06-10T12:59:20;28.20;98.50
38860;DHT22;24609;48.316;16.174;2023-06-10T13:01:52;28.70;98.10
38860;DHT22;24609;48.316;16.174;2023-06-10T13:04:19;28.00;99.40
38860;DHT22;24609;48.316;16.174;2023-06-10T13:06:47;26.60;99.90
38860;DHT22;24609;48.316;16.174;2023-06-10T13:09:15;26.90;99.90
38860;DHT22;24609;48.316;16.174;2023-06-10T13:11:42;27.30;99.90
38860;DHT22;24609;48.316;16.174;2023-06-10T13:14:09;26.60;99.90
38860;DHT22;24609;48.316;16.174;2023-06-10T13:16:35;25.80;99.90
38860;DHT22;24609;48.316;16.174;2023-06-10T13:19:04;26.80;99.90
38860;DHT22;24609;48.316;16.174;2023-06-10T13:21:32;28.60;99.90
38860;DHT22;24609;48.316;16.174;2023-06-10T13:23:58;30.60;99.90
38860;DHT22;24609;48.316;16.174;2023-06-10T13:26:24;35.10;93.40
38860;DHT22;24609;48.316;16.174;2023-06-10T13:28:50;36.70;82.20
38860;DHT22;24609;48.316;16.174;2023-06-10T13:31:16;33.70;87.20
38860;DHT22;24609;48.316;16.174;2023-06-10T13:33:41;31.80;91.90
38860;DHT22;24609;48.316;16.174;2023-06-10T13:36:09;32.10;91.50
38860;DHT22;24609;48.316;16.174;2023-06-10T13:38:35;34.30;85.20
38860;DHT22;24609;48.316;16.174;2023-06-10T13:41:00;36.60;81.10
38860;DHT22;24609;48.316;16.174;2023-06-10T13:43:26;36.50;72.90
38860;DHT22;24609;48.316;16.174;2023-06-10T13:45:52;35.20;75.10
38860;DHT22;24609;48.316;16.174;2023-06-10T13:48:17;34.30;77.90
38860;DHT22;24609;48.316;16.174;2023-06-10T13:50:43;33.70;77.30
38860;DHT22;24609;48.316;16.174;2023-06-10T13:53:11;32.90;77.40
38860;DHT22;24609;48.316;16.174;2023-06-10T13:55:37;31.90;82.80
38860;DHT22;24609;48.316;16.174;2023-06-10T13:58:02;31.00;85.00
38860;DHT22;24609;48.316;16.174;2023-06-10T14:00:28;31.50;87.80
38860;DHT22;24609;48.316;16.174;2023-06-10T14:02:54;31.30;87.70
38860;DHT22;24609;48.316;16.174;2023-06-10T14:05:20;30.50;89.20
38860;DHT22;24609;48.316;16.174;2023-06-10T14:07:45;29.80;91.20
38860;DHT22;24609;48.316;16.174;2023-06-10T14:10:11;29.20;91.90
38860;DHT22;24609;48.316;16.174;2023-06-10T14:12:37;28.80;92.00
38860;DHT22;24609;48.316;16.174;2023-06-10T14:15:02;28.20;93.80
38860;DHT22;24609;48.316;16.174;2023-06-10T14:17:28;27.50;95.70
38860;DHT22;24609;48.316;16.174;2023-06-10T14:19:54;27.20;97.30
38860;DHT22;24609;48.316;16.174;2023-06-10T14:22:19;27.20;98.70
38860;DHT22;24609;48.316;16.174;2023-06-10T14:24:45;27.50;99.40
38860;DHT22;24609;48.316;16.174;2023-06-10T14:27:12;27.70;97.60
38860;DHT22;24609;48.316;16.174;2023-06-10T14:29:38;28.90;96.20
38860;DHT22;24609;48.316;16.174;2023-06-10T14:32:04;28.90;94.60
38860;DHT22;24609;48.316;16.174;2023-06-10T14:34:30;31.60;90.70
38860;DHT22;24609;48.316;16.174;2023-06-10T14:36:59;35.80;75.00
38860;DHT22;24609;48.316;16.174;2023-06-10T14:39:25;32.70;77.30
38860;DHT22;24609;48.316;16.174;2023-06-10T14:41:51;33.60;77.80
38860;DHT22;24609;48.316;16.174;2023-06-10T14:44:18;38.00;70.50
38860;DHT22;24609;48.316;16.174;2023-06-10T14:46:44;35.70;63.00
38860;DHT22;24609;48.316;16.174;2023-06-10T14:49:09;34.20;69.10
38860;DHT22;24609;48.316;16.174;2023-06-10T14:51:35;33.90;69.70
38860;DHT22;24609;48.316;16.174;2023-06-10T14:54:01;32.50;76.60
38860;DHT22;24609;48.316;16.174;2023-06-10T14:56:27;32.90;71.20
38860;DHT22;24609;48.316;16.174;2023-06-10T14:58:52;32.10;73.50
38860;DHT22;24609;48.316;16.174;2023-06-10T15:01:18;32.10;76.70
38860;DHT22;24609;48.316;16.174;2023-06-10T15:03:44;33.50;75.50
38860;DHT22;24609;48.316;16.174;2023-06-10T15:06:10;32.50;76.60
38860;DHT22;24609;48.316;16.174;2023-06-10T15:08:35;31.20;80.70
38860;DHT22;24609;48.316;16.174;2023-06-10T15:11:01;31.20;79.50
38860;DHT22;24609;48.316;16.174;2023-06-10T15:13:28;30.30;83.30
38860;DHT22;24609;48.316;16.174;2023-06-10T15:15:53;28.80;88.30
38860;DHT22;24609;48.316;16.174;2023-06-10T15:18:19;27.70;94.20
38860;DHT22;24609;48.316;16.174;2023-06-10T15:20:45;26.60;99.90
38860;DHT22;24609;48.316;16.174;2023-06-10T15:23:10;25.60;99.90
38860;DHT22;24609;48.316;16.174;2023-06-10T15:25:36;24.90;99.90
38860;DHT22;24609;48.316;16.174;2023-06-10T15:28:02;24.30;99.90
38860;DHT22;24609;48.316;16.174;2023-06-10T15:30:28;23.80;99.90
38860;DHT22;24609;48.316;16.174;2023-06-10T15:32:56;23.00;99.90
38860;DHT22;24609;48.316;16.174;2023-06-10T15:35:23;22.30;99.90
38860;DHT22;24609;48.316;16.174;2023-06-10T15:37:48;21.50;99.90
38860;DHT22;24609;48.316;16.174;2023-06-10T15:40:14;21.00;99.90
38860;DHT22;24609;48.316;16.174;2023-06-10T15:42:40;20.70;99.90